UNEE/KEJ METAR and TAF weather

Enter ICAO airport designator
Station Type Date Time Source
UNEE METAR 2022/01/18 06:30 UTC NOAA

UNEE 180630Z 18004MPS 9999 SCT010 M09/M12 Q1024 R23/920540 NOSIG RMK QFE745


Station Type Date Time Source
UNEE Decoded METAR 2022/01/18 06:30 UTC NOAA

Kemerovo, Russia (UNEE) 55-19-48N 086-04-48E
Jan 18, 2022 - 01:30 AM EST / 2022.01.18 0630 UTC
Wind: from the S (180 degrees) at 9 MPH (8 KT):0
Visibility: greater than 7 mile(s):0
Sky conditions: partly cloudy
Temperature: 15 F (-9 C)
Windchill: 3 F (-16 C):1
Dew Point: 10 F (-12 C)
Relative Humidity: 78%
Pressure (altimeter): 30.24 in. Hg (1024 hPa)
ob: UNEE 180630Z 18004MPS 9999 SCT010 M09/M12 Q1024 R23/920540 NOSIG RMK QFE745
cycle: 6

Station Type Date Time Source
UNEE TAF 2022/01/18 06:24 UTC NOAA

TAF UNEE 180500Z 1806/1906 16003G08MPS 8000 BKN025
TEMPO 1806/1812 20005G11MPS BKN011
TEMPO 1812/1906 3000 -SN FU SCT010

Example: see airport list